createdAt,value
2023-10-06T00:00:24.927Z,27
2023-10-06T00:01:26.103Z,28
2023-10-06T00:02:27.083Z,30
2023-10-06T00:03:28.023Z,30
2023-10-06T00:04:29.243Z,33
2023-10-06T00:05:30.027Z,36
2023-10-06T00:06:30.949Z,37
2023-10-06T00:07:31.989Z,38
2023-10-06T00:08:32.962Z,41
2023-10-06T00:09:33.961Z,41
2023-10-06T00:10:34.937Z,41
2023-10-06T00:11:35.952Z,42
2023-10-06T00:12:36.985Z,41
2023-10-06T00:13:38.035Z,41
2023-10-06T00:14:39.026Z,42
2023-10-06T00:15:40.234Z,42
2023-10-06T00:16:41.225Z,42
2023-10-06T00:17:41.959Z,42
2023-10-06T00:18:42.990Z,43
2023-10-06T00:19:44.002Z,41
2023-10-06T00:20:44.976Z,42
2023-10-06T00:21:46.027Z,41
2023-10-06T00:22:46.980Z,41
2023-10-06T00:23:47.978Z,42
2023-10-06T00:24:49.065Z,41
2023-10-06T00:25:49.950Z,40
2023-10-06T00:26:50.942Z,40
2023-10-06T00:27:51.999Z,40
2023-10-06T00:28:53.098Z,40
2023-10-06T00:29:53.961Z,41
2023-10-06T00:30:54.969Z,41
2023-10-06T00:31:56.112Z,41
2023-10-06T00:32:57.007Z,40
2023-10-06T00:33:57.948Z,40
2023-10-06T00:34:59.036Z,41
2023-10-06T00:36:00.012Z,40
2023-10-06T00:37:00.965Z,39
2023-10-06T00:38:02.034Z,38
2023-10-06T00:39:04.250Z,38
2023-10-06T00:40:04.972Z,37
2023-10-06T00:41:06.086Z,37
2023-10-06T00:42:06.977Z,35
2023-10-06T00:43:07.973Z,35
2023-10-06T00:44:09.069Z,35
2023-10-06T00:45:09.970Z,34
2023-10-06T00:46:10.992Z,33
2023-10-06T00:47:12.140Z,33
2023-10-06T00:48:13.093Z,33
2023-10-06T00:49:14.026Z,33
2023-10-06T00:50:14.978Z,33
2023-10-06T00:51:17.486Z,33
2023-10-06T00:52:16.987Z,33
2023-10-06T00:53:18.010Z,31
2023-10-06T00:54:18.994Z,30
2023-10-06T00:55:20.067Z,30
2023-10-06T00:56:21.084Z,30
2023-10-06T00:57:22.017Z,29
2023-10-06T00:58:22.986Z,29
2023-10-06T00:59:23.997Z,29
2023-10-06T01:00:25.052Z,29
2023-10-06T01:01:26.034Z,29
2023-10-06T01:02:27.242Z,29
2023-10-06T01:03:28.122Z,29
2023-10-06T01:04:29.402Z,28
2023-10-06T01:05:31.008Z,29
2023-10-06T01:06:32.059Z,28
2023-10-06T01:07:33.002Z,27
2023-10-06T01:08:34.028Z,28
2023-10-06T01:09:35.230Z,27
2023-10-06T01:10:36.257Z,26
2023-10-06T01:11:37.035Z,26
2023-10-06T01:12:37.982Z,26
2023-10-06T01:13:39.015Z,26
2023-10-06T01:14:39.980Z,26
2023-10-06T01:15:41.029Z,26
2023-10-06T01:16:42.004Z,26
2023-10-06T01:17:43.170Z,27
2023-10-06T01:18:44.042Z,27
2023-10-06T01:19:45.041Z,27
2023-10-06T01:20:46.065Z,27
2023-10-06T01:21:47.029Z,27
2023-10-06T01:22:48.034Z,27
2023-10-06T01:23:49.097Z,26
2023-10-06T01:24:49.970Z,26
2023-10-06T01:25:51.089Z,28
2023-10-06T01:26:52.046Z,26
2023-10-06T01:27:52.982Z,25
2023-10-06T01:28:54.009Z,26
2023-10-06T01:29:54.993Z,26
2023-10-06T01:30:56.011Z,25
2023-10-06T01:31:57.025Z,25
2023-10-06T01:32:58.181Z,25
2023-10-06T01:35:35.224Z,26
2023-10-06T01:36:36.056Z,25
2023-10-06T01:37:37.008Z,25
2023-10-06T01:38:37.997Z,25
2023-10-06T01:39:39.042Z,23
2023-10-06T01:40:40.106Z,22
2023-10-06T01:41:41.011Z,23
2023-10-06T01:42:42.023Z,23
2023-10-06T01:43:43.068Z,24
2023-10-06T01:44:44.014Z,24
2023-10-06T01:45:45.348Z,24
2023-10-06T01:46:46.045Z,23
2023-10-06T01:47:47.027Z,23
2023-10-06T01:48:48.197Z,24
2023-10-06T01:49:49.235Z,24
2023-10-06T01:50:50.030Z,24
2023-10-06T01:52:02.890Z,24
2023-10-06T01:52:52.080Z,24
2023-10-06T01:53:53.003Z,23
2023-10-06T01:54:54.042Z,23
2023-10-06T01:55:55.072Z,22
2023-10-06T01:56:56.001Z,23
2023-10-06T01:57:57.028Z,23
2023-10-06T01:58:58.040Z,23
2023-10-06T01:59:58.999Z,23
2023-10-06T02:01:00.118Z,23
2023-10-06T02:02:01.072Z,22
2023-10-06T02:03:02.234Z,23
2023-10-06T02:04:03.155Z,22
2023-10-06T02:05:04.293Z,22
2023-10-06T02:06:05.020Z,22
2023-10-06T02:07:06.041Z,23
2023-10-06T02:08:07.058Z,24
2023-10-06T02:09:08.354Z,24
2023-10-06T02:10:09.039Z,26
2023-10-06T02:11:10.127Z,25
2023-10-06T02:12:11.131Z,25
2023-10-06T02:13:12.011Z,25
2023-10-06T02:14:13.037Z,25
2023-10-06T02:15:14.030Z,24
2023-10-06T02:16:15.045Z,24
2023-10-06T02:17:16.080Z,24
2023-10-06T02:18:17.113Z,24
2023-10-06T02:19:18.157Z,25
2023-10-06T02:20:19.395Z,24
2023-10-06T02:21:20.048Z,24
2023-10-06T02:22:21.072Z,25
2023-10-06T02:23:22.056Z,24
2023-10-06T02:24:23.048Z,25
2023-10-06T02:25:24.067Z,25
2023-10-06T02:26:25.017Z,25
2023-10-06T02:27:26.064Z,25
2023-10-06T02:28:27.051Z,25
2023-10-06T02:29:28.072Z,26
2023-10-06T02:30:29.065Z,27
2023-10-06T02:31:30.100Z,28
2023-10-06T02:32:31.106Z,27
2023-10-06T02:33:32.355Z,28
2023-10-06T02:34:33.182Z,28
2023-10-06T02:35:34.551Z,30
2023-10-06T02:36:36.056Z,30
2023-10-06T02:37:37.171Z,30
2023-10-06T02:38:38.033Z,30
2023-10-06T02:39:39.174Z,29
2023-10-06T02:40:40.053Z,30
2023-10-06T02:41:41.067Z,31
2023-10-06T02:42:42.067Z,33
2023-10-06T02:43:43.021Z,31
2023-10-06T02:44:44.052Z,31
2023-10-06T02:45:45.010Z,30
2023-10-06T02:46:46.172Z,30
2023-10-06T02:47:47.217Z,31
2023-10-06T02:48:48.053Z,33
2023-10-06T02:49:50.365Z,34
2023-10-06T02:50:51.113Z,33
2023-10-06T02:51:52.089Z,33
2023-10-06T02:52:53.179Z,33
2023-10-06T02:53:54.207Z,31
2023-10-06T02:54:55.052Z,31
2023-10-06T02:55:56.103Z,31
2023-10-06T02:56:57.095Z,31
2023-10-06T02:57:58.063Z,30
2023-10-06T02:58:59.200Z,31
2023-10-06T03:00:00.122Z,31
2023-10-06T03:01:01.128Z,31
2023-10-06T03:02:02.313Z,30
2023-10-06T03:03:03.107Z,31
2023-10-06T03:04:04.068Z,31
2023-10-06T03:05:05.200Z,31
2023-10-06T03:06:06.050Z,31
2023-10-06T03:07:07.057Z,33
2023-10-06T03:08:08.086Z,33
2023-10-06T03:09:09.285Z,34
2023-10-06T03:10:10.103Z,33
2023-10-06T03:11:11.180Z,33
2023-10-06T03:12:12.083Z,33
2023-10-06T03:13:13.051Z,33
2023-10-06T03:14:14.069Z,34
2023-10-06T03:15:15.049Z,33
2023-10-06T03:16:16.076Z,31
2023-10-06T03:17:17.081Z,30
2023-10-06T03:18:18.122Z,31
2023-10-06T03:19:20.150Z,31
2023-10-06T03:20:21.178Z,31
2023-10-06T03:21:22.091Z,30
2023-10-06T03:22:23.096Z,29
2023-10-06T03:23:24.067Z,29
2023-10-06T03:24:25.080Z,30
2023-10-06T03:25:26.073Z,29
2023-10-06T03:26:27.047Z,29
2023-10-06T03:27:28.109Z,29
2023-10-06T03:28:29.117Z,28
2023-10-06T03:29:30.086Z,29
2023-10-06T03:30:31.095Z,30
2023-10-06T03:31:32.087Z,31
2023-10-06T03:32:33.163Z,33
2023-10-06T03:33:34.148Z,33
2023-10-06T03:34:35.388Z,33
2023-10-06T03:35:36.230Z,34
2023-10-06T03:36:37.096Z,34
2023-10-06T03:37:38.106Z,34
2023-10-06T03:38:39.094Z,35
2023-10-06T03:39:40.094Z,33
2023-10-06T03:40:41.171Z,31
2023-10-06T03:41:42.090Z,31
2023-10-06T03:42:43.079Z,33
2023-10-06T03:43:44.153Z,35
2023-10-06T03:44:45.094Z,36
2023-10-06T03:45:46.126Z,38
2023-10-06T03:46:47.203Z,40
2023-10-06T03:47:48.116Z,41
2023-10-06T03:48:49.089Z,44
2023-10-06T03:49:50.115Z,45
2023-10-06T03:50:51.298Z,45
2023-10-06T03:51:52.111Z,47
2023-10-06T03:52:53.174Z,48
2023-10-06T03:53:54.234Z,48
2023-10-06T03:54:55.100Z,49
2023-10-06T03:55:56.230Z,55
2023-10-06T03:56:57.088Z,55
2023-10-06T03:57:58.165Z,53
2023-10-06T03:58:59.173Z,53
2023-10-06T04:00:00.125Z,52
2023-10-06T04:01:01.160Z,51
2023-10-06T04:02:02.287Z,51
2023-10-06T04:03:03.234Z,49
2023-10-06T04:04:04.199Z,50
2023-10-06T04:05:05.170Z,49
2023-10-06T04:06:06.247Z,50
2023-10-06T04:07:07.108Z,51
2023-10-06T04:08:08.160Z,51
2023-10-06T04:09:13.041Z,49
2023-10-06T04:10:14.073Z,48
2023-10-06T04:11:15.005Z,46
2023-10-06T04:12:16.022Z,47
2023-10-06T04:13:17.083Z,46
2023-10-06T04:14:18.040Z,45
2023-10-06T04:15:19.078Z,47
2023-10-06T04:16:20.048Z,46
2023-10-06T04:17:20.866Z,45
2023-10-06T04:18:21.992Z,45
2023-10-06T04:19:23.055Z,45
2023-10-06T04:20:23.949Z,44
2023-10-06T04:21:25.102Z,44
2023-10-06T04:22:25.990Z,42
2023-10-06T04:23:27.012Z,42
2023-10-06T04:24:28.028Z,44
2023-10-06T04:25:28.984Z,44
2023-10-06T04:26:30.066Z,42
2023-10-06T04:27:31.056Z,42
2023-10-06T04:28:43.616Z,42
2023-10-06T04:29:48.340Z,42
2023-10-06T04:30:57.289Z,41
2023-10-06T04:32:09.638Z,42
2023-10-06T04:33:22.163Z,40
2023-10-06T04:34:43.543Z,41
2023-10-06T04:35:59.910Z,42
2023-10-06T04:37:24.203Z,42
2023-10-06T04:38:32.955Z,44
2023-10-06T04:39:54.180Z,45
2023-10-06T04:41:20.151Z,46
2023-10-06T04:42:44.144Z,45
2023-10-06T04:44:09.387Z,44
2023-10-06T04:45:22.496Z,42
2023-10-06T04:46:47.035Z,42
2023-10-06T04:48:11.014Z,41
2023-10-06T04:49:35.298Z,41
2023-10-06T04:50:59.299Z,41
2023-10-06T04:52:23.556Z,41
2023-10-06T04:53:48.778Z,41
2023-10-06T04:55:12.653Z,41
2023-10-06T04:56:37.501Z,41
2023-10-06T04:58:01.790Z,40
2023-10-06T04:59:26.010Z,40
2023-10-06T05:00:49.940Z,41
2023-10-06T05:02:14.159Z,40
2023-10-06T05:03:39.208Z,41
2023-10-06T05:04:45.525Z,40
2023-10-06T05:06:12.414Z,40
2023-10-06T05:07:36.843Z,41
2023-10-06T05:08:51.564Z,42
2023-10-06T05:10:08.464Z,41
2023-10-06T05:11:34.386Z,41
2023-10-06T05:13:00.419Z,41
2023-10-06T05:14:25.470Z,40
2023-10-06T05:15:50.558Z,40
2023-10-06T05:17:14.682Z,40
2023-10-06T05:18:39.958Z,38
2023-10-06T05:19:45.208Z,40
2023-10-06T05:21:09.907Z,38
2023-10-06T05:22:35.250Z,38
2023-10-06T05:24:05.290Z,37
2023-10-06T05:25:12.522Z,37
2023-10-06T05:26:39.792Z,37
2023-10-06T05:28:04.041Z,35
2023-10-06T05:29:28.289Z,34
2023-10-06T05:30:53.678Z,33
2023-10-06T05:32:19.525Z,33
2023-10-06T05:33:43.809Z,31
2023-10-06T05:35:09.122Z,31
2023-10-06T05:36:38.396Z,31
2023-10-06T05:38:02.823Z,31
2023-10-06T05:39:26.989Z,29
2023-10-06T05:40:51.022Z,27
2023-10-06T05:41:56.014Z,29
2023-10-06T05:43:16.792Z,30
2023-10-06T05:44:22.028Z,31
2023-10-06T05:45:46.154Z,30
2023-10-06T05:47:10.407Z,30
2023-10-06T05:48:35.815Z,30
2023-10-06T05:49:59.361Z,33
2023-10-06T05:51:23.615Z,31
2023-10-06T05:52:40.695Z,30
2023-10-06T05:54:06.353Z,29
2023-10-06T05:55:18.524Z,29
2023-10-06T05:56:46.950Z,30
2023-10-06T05:58:13.109Z,27
2023-10-06T05:59:23.123Z,28
2023-10-06T06:00:49.213Z,28
2023-10-06T06:01:59.339Z,26
2023-10-06T06:03:25.351Z,26
2023-10-06T06:04:46.411Z,27
2023-10-06T06:05:56.278Z,26
2023-10-06T06:07:03.183Z,24
2023-10-06T06:08:27.944Z,23
2023-10-06T06:09:52.752Z,22
2023-10-06T06:11:17.301Z,22
2023-10-06T06:12:40.846Z,22
2023-10-06T06:13:59.278Z,22
2023-10-06T06:15:18.897Z,22
2023-10-06T06:16:48.067Z,23
2023-10-06T06:18:04.623Z,23
2023-10-06T06:19:29.315Z,23
2023-10-06T06:20:46.412Z,22
2023-10-06T06:22:12.813Z,20
2023-10-06T06:23:37.443Z,19
2023-10-06T06:25:02.181Z,20
2023-10-06T06:26:27.307Z,22
2023-10-06T06:27:52.725Z,20
2023-10-06T06:29:18.403Z,20
2023-10-06T06:30:42.653Z,22
2023-10-06T06:32:08.120Z,23
2023-10-06T06:33:33.960Z,20
2023-10-06T06:34:39.122Z,19
2023-10-06T06:36:05.859Z,18
2023-10-06T06:37:32.872Z,19
2023-10-06T06:38:58.940Z,20
2023-10-06T06:40:22.940Z,19
2023-10-06T06:41:47.240Z,19
2023-10-06T06:43:12.934Z,19
2023-10-06T06:44:38.744Z,20
2023-10-06T06:46:03.410Z,19
2023-10-06T06:47:27.451Z,18
2023-10-06T06:48:33.008Z,18
2023-10-06T06:49:52.238Z,19
2023-10-06T06:51:18.815Z,20
2023-10-06T06:52:43.041Z,19
2023-10-06T06:54:08.465Z,20
2023-10-06T06:55:36.629Z,18
2023-10-06T06:57:01.360Z,20
2023-10-06T06:58:26.556Z,19
2023-10-06T06:59:50.686Z,20
2023-10-06T07:01:14.768Z,22
2023-10-06T07:02:39.700Z,22
2023-10-06T07:04:03.996Z,22
2023-10-06T07:05:27.846Z,20
2023-10-06T07:06:53.553Z,20
2023-10-06T07:08:18.309Z,20
2023-10-06T07:09:43.281Z,20
2023-10-06T07:11:07.604Z,20
2023-10-06T07:12:33.920Z,20
2023-10-06T07:13:58.726Z,20
2023-10-06T07:15:22.873Z,20
2023-10-06T07:16:46.962Z,22
2023-10-06T07:18:11.104Z,22
2023-10-06T07:19:35.153Z,23
2023-10-06T07:20:59.044Z,24
2023-10-06T07:22:25.046Z,26
2023-10-06T07:23:30.065Z,27
2023-10-06T07:24:57.534Z,26
2023-10-06T07:26:25.924Z,26
2023-10-06T07:27:50.612Z,26
2023-10-06T07:29:15.494Z,27
2023-10-06T07:30:39.745Z,26
2023-10-06T07:32:04.755Z,24
2023-10-06T07:33:13.022Z,25
2023-10-06T07:34:39.341Z,24
2023-10-06T07:35:52.772Z,25
2023-10-06T07:37:19.422Z,26
2023-10-06T07:38:43.401Z,26
2023-10-06T07:40:08.325Z,25
2023-10-06T07:41:32.620Z,25
2023-10-06T07:42:56.963Z,24
2023-10-06T07:44:16.970Z,24
2023-10-06T07:45:24.798Z,25
2023-10-06T07:46:48.069Z,25
2023-10-06T07:48:15.188Z,25
2023-10-06T07:49:39.811Z,25
2023-10-06T07:51:04.280Z,25
2023-10-06T07:52:29.273Z,26
2023-10-06T07:53:57.229Z,25
2023-10-06T07:55:23.497Z,24
2023-10-06T07:56:28.501Z,24
2023-10-06T07:57:53.815Z,24
2023-10-06T07:59:11.651Z,24
2023-10-06T08:00:18.041Z,25
2023-10-06T08:01:43.355Z,25
2023-10-06T08:03:08.121Z,23
2023-10-06T08:04:32.145Z,23
2023-10-06T08:05:40.914Z,23
2023-10-06T08:07:04.955Z,24
2023-10-06T08:08:29.018Z,23
2023-10-06T08:09:54.196Z,23
2023-10-06T08:11:21.398Z,24
2023-10-06T08:12:43.332Z,23
2023-10-06T08:14:10.667Z,22
2023-10-06T08:15:34.714Z,22
2023-10-06T08:16:58.781Z,23
2023-10-06T08:18:23.003Z,22
2023-10-06T08:19:29.211Z,22
2023-10-06T08:20:53.598Z,23
2023-10-06T08:22:18.846Z,22
2023-10-06T08:23:42.979Z,20
2023-10-06T08:25:07.014Z,19
2023-10-06T08:26:32.186Z,22
2023-10-06T08:27:58.951Z,23
2023-10-06T08:29:22.412Z,22
2023-10-06T08:30:31.807Z,22
2023-10-06T08:31:57.200Z,23
2023-10-06T08:33:21.327Z,23
2023-10-06T08:34:47.081Z,23
2023-10-06T08:36:12.747Z,22
2023-10-06T08:37:38.177Z,20
2023-10-06T08:38:55.052Z,23
2023-10-06T08:40:19.179Z,22
2023-10-06T08:41:46.471Z,22
2023-10-06T08:43:15.379Z,22
2023-10-06T08:44:40.021Z,23
2023-10-06T08:45:53.341Z,22
2023-10-06T08:47:27.746Z,19
2023-10-06T08:48:42.902Z,19
2023-10-06T08:49:55.812Z,19
2023-10-06T08:51:19.898Z,19
2023-10-06T08:52:46.666Z,22
2023-10-06T08:54:12.391Z,22
2023-10-06T08:55:40.778Z,22
2023-10-06T08:56:53.924Z,22
2023-10-06T08:58:17.760Z,20
2023-10-06T08:59:42.556Z,19
2023-10-06T09:01:07.898Z,20
2023-10-06T09:02:32.313Z,20
2023-10-06T09:03:56.327Z,20
2023-10-06T09:05:21.036Z,18
2023-10-06T09:06:45.645Z,17
2023-10-06T09:08:11.008Z,18
2023-10-06T09:09:35.847Z,17
2023-10-06T09:10:59.864Z,20
2023-10-06T09:12:24.693Z,18
2023-10-06T09:13:50.134Z,18
2023-10-06T09:15:14.245Z,18
2023-10-06T09:16:34.390Z,18
2023-10-06T09:17:39.550Z,18
2023-10-06T09:19:03.465Z,20
2023-10-06T09:20:30.843Z,20
2023-10-06T09:21:53.610Z,19
2023-10-06T09:23:06.184Z,19
2023-10-06T09:24:14.938Z,19
2023-10-06T09:25:43.232Z,19
2023-10-06T09:27:06.230Z,19
2023-10-06T09:28:34.731Z,18
2023-10-06T09:30:17.280Z,17
2023-10-06T09:31:52.178Z,18
2023-10-06T09:33:38.246Z,16
2023-10-06T09:35:02.407Z,17
2023-10-06T09:37:32.875Z,17
2023-10-06T09:38:55.349Z,16
2023-10-06T09:40:19.700Z,16
2023-10-06T09:41:45.701Z,16
2023-10-06T09:43:04.163Z,15
2023-10-06T09:44:30.323Z,15
2023-10-06T09:45:55.575Z,16
2023-10-06T09:47:23.610Z,17
2023-10-06T09:48:47.630Z,15
2023-10-06T09:50:11.610Z,15
2023-10-06T09:51:20.527Z,14
2023-10-06T09:52:38.450Z,15
2023-10-06T09:54:02.809Z,15
2023-10-06T09:55:19.401Z,15
2023-10-06T09:56:45.749Z,15
2023-10-06T09:58:10.539Z,14
2023-10-06T09:59:36.501Z,14
2023-10-06T10:01:00.776Z,14
2023-10-06T10:02:25.397Z,14
2023-10-06T10:03:33.041Z,14
2023-10-06T10:04:58.522Z,15
2023-10-06T10:06:25.915Z,15
2023-10-06T10:07:50.195Z,15
2023-10-06T10:09:13.296Z,15
2023-10-06T10:10:17.990Z,13
2023-10-06T10:11:42.457Z,12
2023-10-06T10:13:06.754Z,12
2023-10-06T10:14:31.535Z,12
2023-10-06T10:16:00.665Z,12
2023-10-06T10:17:27.849Z,11
2023-10-06T10:18:42.932Z,12
2023-10-06T10:20:07.386Z,11
2023-10-06T10:21:31.295Z,13
2023-10-06T10:22:57.021Z,13
2023-10-06T10:24:57.742Z,13
2023-10-06T10:25:38.592Z,13
2023-10-06T10:27:00.821Z,12
2023-10-06T10:28:15.566Z,12
2023-10-06T10:29:41.052Z,11
2023-10-06T10:31:06.077Z,11
2023-10-06T10:32:31.125Z,11
2023-10-06T10:33:57.227Z,9
2023-10-06T10:35:17.904Z,11
2023-10-06T10:36:30.704Z,11
2023-10-06T10:37:55.185Z,11
2023-10-06T10:39:20.373Z,11
2023-10-06T10:40:44.604Z,11
2023-10-06T10:41:57.616Z,11
2023-10-06T10:43:25.519Z,11
2023-10-06T10:44:31.174Z,11
2023-10-06T10:45:54.988Z,12
2023-10-06T10:47:19.064Z,11
2023-10-06T10:48:45.496Z,12
2023-10-06T10:50:10.583Z,11
2023-10-06T10:51:35.547Z,11
2023-10-06T10:52:48.416Z,11
2023-10-06T10:54:16.106Z,11
2023-10-06T10:55:31.349Z,11
2023-10-06T10:56:44.926Z,11
2023-10-06T10:58:11.595Z,11
2023-10-06T10:59:36.497Z,11
2023-10-06T11:01:02.141Z,14
2023-10-06T11:02:27.019Z,13
2023-10-06T11:03:51.727Z,14
2023-10-06T11:05:15.932Z,13
2023-10-06T11:06:41.395Z,12
2023-10-06T11:08:06.094Z,12
2023-10-06T11:09:30.202Z,14
2023-10-06T11:10:54.231Z,14
2023-10-06T11:13:54.201Z,14
2023-10-06T11:15:07.565Z,14
2023-10-06T11:16:31.840Z,13
2023-10-06T11:17:56.567Z,12
2023-10-06T11:19:20.806Z,12
2023-10-06T11:20:45.094Z,12
2023-10-06T11:22:09.646Z,12
2023-10-06T11:23:34.314Z,12
2023-10-06T11:24:59.525Z,12
2023-10-06T11:26:30.449Z,14
2023-10-06T11:27:57.593Z,13
2023-10-06T11:29:22.631Z,14
2023-10-06T11:30:47.835Z,13
2023-10-06T11:32:12.889Z,13
2023-10-06T11:33:18.219Z,13
2023-10-06T11:34:46.235Z,13
2023-10-06T11:36:10.897Z,12
2023-10-06T11:37:35.276Z,12
2023-10-06T11:38:59.120Z,13
2023-10-06T11:40:24.467Z,12
2023-10-06T11:41:34.798Z,13
2023-10-06T11:43:01.150Z,13
2023-10-06T11:44:26.235Z,12
2023-10-06T11:45:43.402Z,12
2023-10-06T11:47:11.894Z,13
2023-10-06T11:48:39.763Z,12
2023-10-06T11:50:04.094Z,12
2023-10-06T11:51:28.022Z,13
2023-10-06T11:52:52.498Z,12
2023-10-06T11:54:18.284Z,13
2023-10-06T11:55:43.317Z,14
2023-10-06T11:57:07.454Z,14
2023-10-06T11:58:31.958Z,13
2023-10-06T11:59:59.682Z,14
2023-10-06T12:01:09.271Z,14
2023-10-06T12:02:36.572Z,14
2023-10-06T12:03:53.823Z,16
2023-10-06T12:05:18.009Z,15
2023-10-06T12:06:45.276Z,14
2023-10-06T12:08:10.635Z,13
2023-10-06T12:09:36.358Z,14
2023-10-06T12:10:41.272Z,13
2023-10-06T12:12:06.437Z,13
2023-10-06T12:13:29.081Z,11
2023-10-06T12:14:54.756Z,12
2023-10-06T12:16:18.740Z,14
2023-10-06T12:17:35.691Z,14
2023-10-06T12:19:00.177Z,14
2023-10-06T12:20:25.236Z,14
2023-10-06T12:21:47.611Z,14
2023-10-06T12:23:11.947Z,12
2023-10-06T12:24:37.128Z,12
2023-10-06T12:25:51.150Z,13
2023-10-06T12:27:17.033Z,12
2023-10-06T12:28:41.768Z,13
2023-10-06T12:30:05.667Z,11
2023-10-06T12:31:29.795Z,11
2023-10-06T12:32:46.772Z,12
2023-10-06T12:34:13.390Z,12
2023-10-06T12:35:30.904Z,12
2023-10-06T12:36:47.652Z,11
2023-10-06T12:38:13.272Z,13
2023-10-06T12:39:38.320Z,13
2023-10-06T12:41:04.513Z,12
2023-10-06T12:42:28.640Z,13
2023-10-06T12:43:52.745Z,12
2023-10-06T12:45:06.827Z,13
2023-10-06T12:46:31.304Z,13
2023-10-06T12:47:40.634Z,12
2023-10-06T12:49:05.022Z,12
2023-10-06T12:50:30.198Z,12
2023-10-06T12:51:35.726Z,13
2023-10-06T12:53:00.153Z,13
2023-10-06T12:54:26.498Z,13
2023-10-06T12:55:52.274Z,13
2023-10-06T12:57:16.537Z,12
2023-10-06T12:58:40.729Z,13
2023-10-06T13:00:06.697Z,13
2023-10-06T13:01:31.407Z,13
2023-10-06T13:02:56.079Z,14
2023-10-06T13:04:22.514Z,14
2023-10-06T13:05:32.421Z,13
2023-10-06T13:06:58.281Z,12
2023-10-06T13:08:04.117Z,12
2023-10-06T13:09:28.940Z,12
2023-10-06T13:10:56.180Z,13
2023-10-06T13:12:22.240Z,13
2023-10-06T13:13:27.433Z,13
2023-10-06T13:14:53.912Z,13
2023-10-06T13:16:19.065Z,13
2023-10-06T13:17:40.834Z,12
2023-10-06T13:18:54.338Z,13
2023-10-06T13:20:23.203Z,13
2023-10-06T13:21:51.012Z,13
2023-10-06T13:23:15.305Z,13
2023-10-06T13:24:30.702Z,12
2023-10-06T13:25:44.852Z,11
2023-10-06T13:26:50.873Z,11
2023-10-06T13:28:15.346Z,11
2023-10-06T13:29:24.445Z,11
2023-10-06T13:30:52.022Z,12
2023-10-06T13:31:57.252Z,12
2023-10-06T13:33:23.333Z,12
2023-10-06T13:34:40.380Z,12
2023-10-06T13:36:06.465Z,12
2023-10-06T13:37:28.540Z,12
2023-10-06T13:38:52.705Z,13
2023-10-06T13:40:17.760Z,13
2023-10-06T13:41:42.321Z,12
2023-10-06T13:43:07.005Z,11
2023-10-06T13:44:31.302Z,11
2023-10-06T13:45:57.295Z,12
2023-10-06T13:47:21.344Z,12
2023-10-06T13:48:41.775Z,12
2023-10-06T13:49:58.038Z,12
2023-10-06T13:51:22.119Z,11
2023-10-06T13:52:31.330Z,9
2023-10-06T13:53:57.892Z,11
2023-10-06T13:55:11.289Z,11
2023-10-06T13:56:35.943Z,11
2023-10-06T13:58:00.844Z,12
2023-10-06T13:59:24.827Z,11
2023-10-06T14:00:49.170Z,11
2023-10-06T14:02:13.882Z,11
2023-10-06T14:03:38.199Z,12
2023-10-06T14:05:02.564Z,11
2023-10-06T14:06:19.492Z,12
2023-10-06T14:07:48.340Z,12
2023-10-06T14:09:05.652Z,11
2023-10-06T14:10:20.914Z,12
2023-10-06T14:11:48.974Z,12
2023-10-06T14:13:16.063Z,11
2023-10-06T14:14:41.848Z,12
2023-10-06T14:15:48.736Z,9
2023-10-06T14:17:16.470Z,11
2023-10-06T14:18:33.295Z,11
2023-10-06T14:19:58.124Z,11
2023-10-06T14:21:20.961Z,12
2023-10-06T14:22:31.266Z,11
2023-10-06T14:23:55.852Z,11
2023-10-06T14:25:19.876Z,11
2023-10-06T14:26:33.060Z,9
2023-10-06T14:27:57.505Z,11
2023-10-06T14:29:21.671Z,11
2023-10-06T14:30:45.798Z,9
2023-10-06T14:32:11.834Z,11
2023-10-06T14:33:36.119Z,11
2023-10-06T14:35:00.200Z,11
2023-10-06T14:36:17.072Z,9
2023-10-06T14:37:43.536Z,11
2023-10-06T14:39:07.772Z,12
2023-10-06T14:40:36.919Z,11
2023-10-06T14:42:00.866Z,11
2023-10-06T14:43:25.052Z,11
2023-10-06T14:44:50.411Z,11
2023-10-06T14:46:11.976Z,11
2023-10-06T14:47:37.744Z,11
2023-10-06T14:49:04.686Z,11
2023-10-06T14:50:14.213Z,9
2023-10-06T14:51:38.371Z,12
2023-10-06T14:53:03.178Z,9
2023-10-06T14:54:24.859Z,9
2023-10-06T14:55:50.878Z,9
2023-10-06T14:56:56.039Z,8
2023-10-06T14:58:21.094Z,11
2023-10-06T14:59:45.924Z,11
2023-10-06T15:01:07.415Z,9
2023-10-06T15:02:32.495Z,11
2023-10-06T15:03:56.942Z,9
2023-10-06T15:05:08.566Z,11
2023-10-06T15:06:35.294Z,9
2023-10-06T15:07:59.527Z,9
2023-10-06T15:09:25.699Z,9
2023-10-06T15:10:35.409Z,11
2023-10-06T15:12:00.583Z,11
2023-10-06T15:13:25.426Z,11
2023-10-06T15:14:49.552Z,9
2023-10-06T15:16:13.581Z,11
2023-10-06T15:17:34.245Z,11
2023-10-06T15:19:00.100Z,11
2023-10-06T15:20:27.101Z,12
2023-10-06T15:21:36.236Z,12
2023-10-06T15:23:02.157Z,9
2023-10-06T15:24:26.955Z,9
2023-10-06T15:25:51.034Z,9
2023-10-06T15:27:15.313Z,11
2023-10-06T15:28:38.435Z,11
2023-10-06T15:29:52.771Z,9
2023-10-06T15:31:17.117Z,11
2023-10-06T15:32:37.227Z,11
2023-10-06T15:34:01.276Z,11
2023-10-06T15:35:25.444Z,12
2023-10-06T15:36:50.622Z,9
2023-10-06T15:38:14.870Z,11
2023-10-06T15:39:20.277Z,11
2023-10-06T15:40:44.671Z,11
2023-10-06T15:42:09.759Z,9
2023-10-06T15:43:33.766Z,9
2023-10-06T15:44:58.854Z,11
2023-10-06T15:46:25.382Z,9
2023-10-06T15:47:57.110Z,9
2023-10-06T15:49:21.362Z,11
2023-10-06T15:50:33.989Z,11
2023-10-06T15:51:42.565Z,11
2023-10-06T15:53:06.931Z,11
2023-10-06T15:54:32.696Z,9
2023-10-06T15:55:57.767Z,9
2023-10-06T15:57:21.875Z,9
2023-10-06T15:58:43.870Z,11
2023-10-06T16:00:10.293Z,11
2023-10-06T16:01:36.386Z,11
2023-10-06T16:03:01.736Z,9
2023-10-06T16:04:22.850Z,9
2023-10-06T16:05:47.837Z,9
2023-10-06T16:07:09.546Z,11
2023-10-06T16:08:27.551Z,9
2023-10-06T16:09:53.705Z,11
2023-10-06T16:11:18.742Z,11
2023-10-06T16:12:45.160Z,9
2023-10-06T16:14:10.056Z,9
2023-10-06T16:15:34.064Z,11
2023-10-06T16:16:58.140Z,12
2023-10-06T16:18:03.626Z,11
2023-10-06T16:19:28.075Z,11
2023-10-06T16:20:52.191Z,11
2023-10-06T16:22:14.433Z,9
2023-10-06T16:23:31.377Z,11
2023-10-06T16:24:56.126Z,11
2023-10-06T16:26:21.284Z,11
2023-10-06T16:27:46.609Z,11
2023-10-06T16:29:12.108Z,9
2023-10-06T16:30:35.726Z,8
2023-10-06T16:32:00.123Z,11
2023-10-06T16:33:24.835Z,9
2023-10-06T16:34:50.034Z,11
2023-10-06T16:36:14.217Z,11
2023-10-06T16:37:38.214Z,11
2023-10-06T16:39:03.422Z,11
2023-10-06T16:40:27.472Z,11
2023-10-06T16:41:52.421Z,11
2023-10-06T16:43:18.533Z,11
2023-10-06T16:44:42.691Z,12
2023-10-06T16:46:07.922Z,12
2023-10-06T16:47:31.936Z,12
2023-10-06T16:48:57.941Z,11
2023-10-06T16:50:10.985Z,11
2023-10-06T16:51:20.480Z,11
2023-10-06T16:52:47.332Z,12
2023-10-06T16:54:11.791Z,11
2023-10-06T16:55:35.568Z,11
2023-10-06T16:56:59.822Z,9
2023-10-06T16:58:24.796Z,8
2023-10-06T16:59:49.104Z,9
2023-10-06T17:01:15.030Z,11
2023-10-06T17:02:41.280Z,9
2023-10-06T17:04:05.236Z,9
2023-10-06T17:05:10.355Z,9
2023-10-06T17:06:39.357Z,11
2023-10-06T17:07:48.122Z,9
2023-10-06T17:09:13.089Z,11
2023-10-06T17:10:37.173Z,11
2023-10-06T17:12:08.774Z,11
2023-10-06T17:13:33.468Z,9
2023-10-06T17:14:57.524Z,11
2023-10-06T17:16:17.839Z,11
2023-10-06T17:17:45.844Z,9
2023-10-06T17:19:11.157Z,11
2023-10-06T17:20:16.580Z,11
2023-10-06T17:21:25.655Z,11
2023-10-06T17:22:52.581Z,11
2023-10-06T17:24:16.615Z,9
2023-10-06T17:25:29.580Z,11
2023-10-06T17:26:46.759Z,10
2023-10-06T17:28:10.865Z,11
2023-10-06T17:29:34.900Z,9
2023-10-06T17:30:59.931Z,11
2023-10-06T17:32:24.178Z,11
2023-10-06T17:33:50.163Z,11
2023-10-06T17:35:10.856Z,12
2023-10-06T17:36:38.603Z,11
2023-10-06T17:37:51.184Z,11
2023-10-06T17:39:15.292Z,11
2023-10-06T17:40:39.339Z,11
2023-10-06T17:42:03.489Z,11
2023-10-06T17:43:27.500Z,11
2023-10-06T17:44:52.702Z,11
2023-10-06T17:46:17.736Z,12
2023-10-06T17:47:42.840Z,11
2023-10-06T17:49:07.918Z,11
2023-10-06T17:50:32.156Z,12
2023-10-06T17:51:56.232Z,11
2023-10-06T17:53:21.355Z,11
2023-10-06T17:54:45.388Z,12
2023-10-06T17:56:10.473Z,12
2023-10-06T17:57:36.354Z,11
2023-10-06T17:59:00.889Z,12
2023-10-06T18:00:06.648Z,11
2023-10-06T18:01:34.771Z,9
2023-10-06T18:03:01.896Z,11
2023-10-06T18:04:14.723Z,11
2023-10-06T18:05:32.121Z,11
2023-10-06T18:06:56.895Z,11
2023-10-06T18:08:20.856Z,12